Time;durP1;ratioP1;P1;durP2;ratioP2;P2;SDS_P1;SDS_P2;PMS_P1;PMS_P2;Temp;Humidity;BMP_temperature;BMP_pressure;BME280_temperature;BME280_humidity;BME280_pressure;Samples;Min_cycle;Max_cycle;Signal;HPM_P1;HPM_P2
2022/10/06 00:01:14;;;;;;;27.10;4.05;;;10.50;99.90;;;;;;5034738;28;20824;-71
2022/10/06 00:03:42;;;;;;;30.38;3.25;;;10.50;99.90;;;;;;5036055;28;20041;-72
2022/10/06 00:06:13;;;;;;;24.17;3.50;;;10.50;99.90;;;;;;5035456;28;20056;-73
2022/10/06 00:08:42;;;;;;;24.00;3.53;;;10.40;99.90;;;;;;5034509;28;20056;-74
2022/10/06 00:11:11;;;;;;;31.25;3.67;;;10.40;99.90;;;;;;5035668;28;20054;-73
2022/10/06 00:13:39;;;;;;;30.30;3.63;;;10.40;99.90;;;;;;5035531;28;20045;-74
2022/10/06 00:16:13;;;;;;;27.60;3.63;;;10.40;99.90;;;;;;5034421;28;20376;-74
2022/10/06 00:18:41;;;;;;;25.40;3.50;;;10.30;99.90;;;;;;5035603;28;20046;-72
2022/10/06 00:21:09;;;;;;;25.88;3.45;;;10.30;99.90;;;;;;5033683;28;20194;-71
2022/10/06 00:23:36;;;;;;;27.17;3.70;;;10.30;99.90;;;;;;5018361;28;20037;-71
2022/10/06 00:26:05;;;;;;;29.48;3.58;;;10.30;99.90;;;;;;5035410;28;20049;-72
2022/10/06 00:28:32;;;;;;;30.77;3.33;;;10.30;99.90;;;;;;5034082;28;20493;-73
2022/10/06 00:31:01;;;;;;;23.15;3.00;;;10.30;99.90;;;;;;5017740;28;20045;-74
2022/10/06 00:33:29;;;;;;;22.00;3.10;;;10.40;99.90;;;;;;5035528;28;20053;-74
2022/10/06 00:35:57;;;;;;;22.85;3.22;;;10.30;99.90;;;;;;5016242;28;20057;-72
2022/10/06 00:38:26;;;;;;;18.33;2.65;;;8.50;99.90;;;;;;5034927;28;20053;-74
2022/10/06 00:40:54;;;;;;;20.17;2.95;;;10.30;99.90;;;;;;5016726;28;20045;-71
2022/10/06 00:43:46;;;;;;;24.15;3.38;;;10.30;99.90;;;;;;5035014;28;20037;-72
2022/10/06 00:46:15;;;;;;;18.92;2.80;;;10.30;99.90;;;;;;5034992;28;20048;-73
2022/10/06 00:48:47;;;;;;;16.20;3.08;;;10.30;99.90;;;;;;5000555;28;20041;-72
2022/10/06 00:51:15;;;;;;;22.80;3.05;;;10.30;99.90;;;;;;5035231;28;20472;-74
2022/10/06 00:53:43;;;;;;;14.23;2.58;;;10.20;99.90;;;;;;5017516;28;20052;-72
2022/10/06 00:56:11;;;;;;;19.15;2.95;;;11.00;99.90;;;;;;5016305;28;20091;-71
2022/10/06 00:58:38;;;;;;;21.65;2.78;;;10.20;99.90;;;;;;5017394;28;20045;-71
2022/10/06 01:01:10;;;;;;;18.33;2.70;;;10.10;99.90;;;;;;5016405;28;20046;-73
2022/10/06 01:03:42;;;;;;;19.15;2.70;;;10.10;99.90;;;;;;5017922;28;20453;-73
2022/10/06 01:06:10;;;;;;;16.15;2.70;;;10.10;99.90;;;;;;5034585;28;20045;-71
2022/10/06 01:08:38;;;;;;;21.27;2.42;;;11.20;99.90;;;;;;5033533;28;20053;-74
2022/10/06 01:11:12;;;;;;;21.17;3.05;;;10.30;99.90;;;;;;5034610;28;20050;-72
2022/10/06 01:13:43;;;;;;;20.05;3.20;;;10.00;99.90;;;;;;5001339;28;20472;-71
2022/10/06 01:16:21;;;;;;;22.73;3.10;;;10.00;99.90;;;;;;5033703;28;20364;-71
2022/10/06 01:18:50;;;;;;;17.73;2.42;;;10.00;99.90;;;;;;5001204;28;20044;-71
2022/10/06 01:21:33;;;;;;;24.38;2.88;;;9.90;99.90;;;;;;4999840;28;20487;-73
2022/10/06 01:24:02;;;;;;;19.02;2.83;;;9.90;99.90;;;;;;5017712;28;20041;-73
2022/10/06 01:26:33;;;;;;;29.73;3.05;;;9.90;99.90;;;;;;5017580;28;20038;-72
2022/10/06 01:29:01;;;;;;;20.45;3.00;;;9.80;99.90;;;;;;5016284;28;20048;-71
2022/10/06 01:31:29;;;;;;;20.45;2.75;;;9.70;99.90;;;;;;5001951;28;20045;-73
2022/10/06 01:33:58;;;;;;;16.50;2.60;;;9.70;99.90;;;;;;5005196;28;20049;-73
2022/10/06 01:36:27;;;;;;;20.42;2.70;;;9.60;99.90;;;;;;5020094;28;20061;-74
2022/10/06 01:38:55;;;;;;;21.27;2.40;;;9.60;99.90;;;;;;5004632;28;20049;-71
2022/10/06 01:41:23;;;;;;;21.17;2.70;;;9.60;99.90;;;;;;5037381;28;20468;-71
2022/10/06 01:43:51;;;;;;;21.13;2.72;;;9.50;99.90;;;;;;5038411;28;20049;-73
2022/10/06 01:46:20;;;;;;;20.17;2.78;;;9.50;99.90;;;;;;5004477;28;20060;-75
2022/10/06 01:48:47;;;;;;;20.63;2.53;;;9.50;99.90;;;;;;5019940;28;20041;-72
2022/10/06 01:51:16;;;;;;;21.45;2.80;;;9.40;99.90;;;;;;5021286;28;20064;-72
2022/10/06 01:53:44;;;;;;;20.30;2.53;;;9.40;99.90;;;;;;5020912;28;20053;-72
2022/10/06 01:56:12;;;;;;;21.77;2.90;;;9.30;99.90;;;;;;5019810;28;20038;-74
2022/10/06 01:58:40;;;;;;;22.48;2.50;;;9.30;99.90;;;;;;5020677;28;20048;-73
2022/10/06 02:01:09;;;;;;;27.55;2.85;;;9.30;99.90;;;;;;5019486;28;20244;-71
2022/10/06 02:03:38;;;;;;;23.42;2.78;;;9.20;99.90;;;;;;5021166;28;20044;-74
2022/10/06 02:06:06;;;;;;;18.35;2.15;;;9.20;99.90;;;;;;5051110;28;20068;-74
2022/10/06 02:08:34;;;;;;;16.90;2.30;;;9.20;99.90;;;;;;5039411;28;20044;-74
2022/10/06 02:11:09;;;;;;;29.85;3.22;;;9.20;99.90;;;;;;5056841;28;20045;-73
2022/10/06 02:13:43;;;;;;;17.23;2.58;;;9.10;99.90;;;;;;5057249;28;20041;-72
2022/10/06 02:16:12;;;;;;;26.35;3.10;;;9.10;99.90;;;;;;5056727;28;20060;-71
2022/10/06 02:18:42;;;;;;;21.13;2.83;;;9.00;99.90;;;;;;5056800;28;20040;-74
2022/10/06 02:21:18;;;;;;;18.38;2.88;;;9.00;99.90;;;;;;5055899;28;20268;-74
2022/10/06 02:23:46;;;;;;;16.95;2.50;;;8.90;99.90;;;;;;5057924;28;20411;-74
2022/10/06 02:26:18;;;;;;;;;;;8.80;99.90;;;;;;5057815;28;20464;-73
2022/10/06 02:28:48;;;;;;;24.92;2.80;;;8.80;99.90;;;;;;5055672;28;19925;-72
2022/10/06 02:31:20;;;;;;;17.77;2.45;;;8.70;99.90;;;;;;5056582;28;20056;-72
2022/10/06 02:33:47;;;;;;;17.63;2.35;;;8.70;99.90;;;;;;5056613;28;20071;-75
2022/10/06 02:36:17;;;;;;;22.95;2.80;;;9.00;99.90;;;;;;5055240;28;20048;-70
2022/10/06 02:38:45;;;;;;;18.23;2.92;;;8.60;99.90;;;;;;5057651;28;20147;-74
2022/10/06 02:41:13;;;;;;;23.58;3.00;;;8.60;99.90;;;;;;5056158;28;20053;-74
2022/10/06 02:43:40;;;;;;;21.25;2.97;;;8.60;99.90;;;;;;5056499;28;20053;-73
2022/10/06 02:46:11;;;;;;;25.45;2.83;;;8.60;99.90;;;;;;5057325;28;20487;-76
2022/10/06 02:48:44;;;;;;;24.83;2.55;;;8.60;99.90;;;;;;5055246;28;20049;-75
2022/10/06 02:51:15;;;;;;;20.27;3.30;;;8.60;99.90;;;;;;5056086;28;20049;-72
2022/10/06 02:53:46;;;;;;;22.80;2.85;;;8.60;99.90;;;;;;5056520;28;20364;-75
2022/10/06 02:56:18;;;;;;;21.23;3.10;;;8.60;99.90;;;;;;5055899;28;20048;-72
2022/10/06 02:58:48;;;;;;;18.85;2.55;;;8.50;99.90;;;;;;5039694;28;20372;-73
2022/10/06 03:01:26;;;;;;;20.52;2.92;;;8.50;99.90;;;;;;5055329;28;20045;-74
2022/10/06 03:03:57;;;;;;;25.10;2.67;;;8.50;99.90;;;;;;5056763;28;20462;-75
2022/10/06 03:06:29;;;;;;;27.40;2.85;;;8.50;99.90;;;;;;5055741;28;20479;-75
2022/10/06 03:09:17;;;;;;;23.90;2.80;;;8.50;99.90;;;;;;5054730;28;20062;-72
2022/10/06 03:11:45;;;;;;;25.30;2.97;;;8.40;99.90;;;;;;5057021;28;20056;-74
2022/10/06 03:14:17;;;;;;;19.60;2.58;;;8.40;99.90;;;;;;5054724;28;20041;-73
2022/10/06 03:16:50;;;;;;;19.25;2.85;;;8.40;99.90;;;;;;5040410;28;20041;-74
2022/10/06 03:19:24;;;;;;;21.02;2.47;;;8.40;99.90;;;;;;5040216;28;20052;-72
2022/10/06 03:21:53;;;;;;;26.30;3.28;;;8.40;99.90;;;;;;5054584;28;20049;-74
2022/10/06 03:24:24;;;;;;;23.55;2.65;;;9.50;99.90;;;;;;5055803;28;20036;-75
2022/10/06 03:26:56;;;;;;;28.13;3.30;;;8.40;99.90;;;;;;5039242;28;20049;-74
2022/10/06 03:29:24;;;;;;;22.00;2.85;;;8.40;99.90;;;;;;5038132;28;20049;-76
2022/10/06 03:31:55;;;;;;;25.35;2.92;;;8.40;99.90;;;;;;5055655;28;20376;-72
2022/10/06 03:34:23;;;;;;;19.88;3.13;;;8.40;99.90;;;;;;5054215;28;20056;-72
2022/10/06 03:36:52;;;;;;;25.63;3.30;;;8.40;99.90;;;;;;5055963;28;20498;-72
2022/10/06 03:39:22;;;;;;;19.23;3.10;;;8.40;99.90;;;;;;5039269;28;20041;-75
2022/10/06 03:41:50;;;;;;;20.08;2.90;;;8.40;99.90;;;;;;5054089;28;20052;-76
2022/10/06 03:44:20;;;;;;;24.10;3.15;;;8.30;99.90;;;;;;5056211;28;20053;-72
2022/10/06 03:46:48;;;;;;;25.10;3.17;;;8.30;99.90;;;;;;5038747;28;20041;-73
2022/10/06 03:49:16;;;;;;;29.58;3.08;;;8.30;99.90;;;;;;5054049;28;20049;-75
2022/10/06 03:51:43;;;;;;;23.58;3.25;;;8.20;99.90;;;;;;5054899;28;20037;-74
2022/10/06 03:54:16;;;;;;;29.08;3.33;;;8.20;99.90;;;;;;5054002;28;20349;-74
2022/10/06 03:56:46;;;;;;;19.52;2.80;;;8.20;99.90;;;;;;5054290;28;20044;-74
2022/10/06 03:59:18;;;;;;;21.13;2.95;;;8.10;99.90;;;;;;5054967;28;20052;-73
2022/10/06 04:01:47;;;;;;;24.98;3.03;;;8.10;99.90;;;;;;5053776;28;20052;-75
2022/10/06 04:04:20;;;;;;;22.80;3.22;;;8.10;99.90;;;;;;5036140;28;20480;-74
2022/10/06 04:06:51;;;;;;;23.52;2.42;;;8.10;99.90;;;;;;5002364;28;20046;-73
2022/10/06 04:09:20;;;;;;;20.80;2.80;;;8.10;99.90;;;;;;5034468;28;20365;-72
2022/10/06 04:11:47;;;;;;;25.67;2.85;;;8.10;99.90;;;;;;5018433;28;20057;-74
2022/10/06 04:14:15;;;;;;;24.10;2.63;;;8.10;99.90;;;;;;5017469;28;20049;-74
2022/10/06 04:16:47;;;;;;;21.10;2.85;;;8.10;99.90;;;;;;5018429;28;20042;-75
2022/10/06 04:19:20;;;;;;;27.17;3.30;;;8.20;99.90;;;;;;5018283;28;20041;-72
2022/10/06 04:21:51;;;;;;;16.08;2.47;;;8.20;99.90;;;;;;5016989;28;20048;-74
2022/10/06 04:24:21;;;;;;;26.45;2.92;;;8.20;99.90;;;;;;5017987;28;20376;-73
2022/10/06 04:26:49;;;;;;;22.17;3.03;;;8.10;99.90;;;;;;5018164;28;20042;-74
2022/10/06 04:29:18;;;;;;;18.58;2.60;;;8.10;99.90;;;;;;5034359;28;20056;-74
2022/10/06 04:31:50;;;;;;;28.48;3.22;;;8.10;99.90;;;;;;5018195;28;20388;-71
2022/10/06 04:34:23;;;;;;;20.30;2.72;;;8.10;99.90;;;;;;5017116;28;20053;-72
2022/10/06 04:36:52;;;;;;;22.17;2.80;;;8.10;99.90;;;;;;5018024;28;20514;-73
2022/10/06 04:39:20;;;;;;;16.98;2.50;;;8.10;99.90;;;;;;5017696;28;20052;-72
2022/10/06 04:41:48;;;;;;;;;;;8.00;99.90;;;;;;5017431;28;20140;-75
2022/10/06 04:44:20;;;;;;;20.15;2.92;;;8.10;99.90;;;;;;5017683;28;19928;-71
2022/10/06 04:46:48;;;;;;;;;;;8.00;99.90;;;;;;5035683;28;20052;-74
2022/10/06 04:49:18;;;;;;;27.23;2.97;;;8.00;99.90;;;;;;5016574;28;19921;-75
2022/10/06 04:51:50;;;;;;;27.60;3.50;;;8.00;99.90;;;;;;5017688;28;20045;-73
2022/10/06 04:54:18;;;;;;;30.60;3.50;;;8.00;99.90;;;;;;5017195;28;20049;-73
2022/10/06 04:56:49;;;;;;;25.95;2.95;;;7.90;99.90;;;;;;5017635;28;20041;-72
2022/10/06 05:00:21;;;;;;;28.45;3.05;;;8.00;99.90;;;;;;5017634;28;20380;-71
2022/10/06 05:02:09;;;;;;;22.25;3.17;;;8.00;99.90;;;;;;5016569;28;20046;-73
2022/10/06 05:04:37;;;;;;;;;;;8.00;99.90;;;;;;5007976;28;20402;-73
2022/10/06 05:07:05;;;;;;;21.02;2.60;;;7.70;99.90;;;;;;5053926;28;19921;-75
2022/10/06 05:09:34;;;;;;;29.15;2.85;;;7.90;99.90;;;;;;5052895;28;20375;-74
2022/10/06 05:12:02;;;;;;;;;;;7.90;99.90;;;;;;5054609;28;20060;-74
2022/10/06 05:14:32;;;;;;;26.95;2.97;;;7.90;99.90;;;;;;5052804;28;20367;-74
2022/10/06 05:16:59;;;;;;;26.38;3.08;;;7.90;99.90;;;;;;5053675;28;20053;-72
2022/10/06 05:19:29;;;;;;;27.52;2.78;;;8.00;99.90;;;;;;5053527;28;20049;-71
2022/10/06 05:21:57;;;;;;;25.35;3.05;;;7.90;99.90;;;;;;5052517;28;20044;-74
2022/10/06 05:24:30;;;;;;;28.17;2.95;;;7.90;99.90;;;;;;5053793;28;20045;-74
2022/10/06 05:27:00;;;;;;;25.48;3.63;;;7.90;99.90;;;;;;5053705;28;20041;-74
2022/10/06 05:29:28;;;;;;;27.00;3.30;;;7.90;99.90;;;;;;5052381;28;20041;-75
2022/10/06 05:31:56;;;;;;;24.20;3.25;;;7.90;99.90;;;;;;5037169;28;20044;-73
2022/10/06 05:34:26;;;;;;;26.75;3.30;;;7.90;99.90;;;;;;5052738;28;20044;-72
2022/10/06 05:36:53;;;;;;;27.13;2.97;;;7.90;99.90;;;;;;5054514;28;20049;-75
2022/10/06 05:39:21;;;;;;;21.07;2.90;;;7.90;99.90;;;;;;5053842;28;20048;-72
2022/10/06 05:41:53;;;;;;;25.50;3.13;;;7.90;99.90;;;;;;5051942;28;20270;-73
2022/10/06 05:44:20;;;;;;;16.88;2.63;;;7.90;99.90;;;;;;5034417;28;20053;-74
2022/10/06 05:46:48;;;;;;;29.08;4.15;;;7.90;99.90;;;;;;5034428;28;20471;-72
2022/10/06 05:49:15;;;;;;;23.48;3.00;;;7.90;99.90;;;;;;5033072;28;20060;-74
2022/10/06 05:51:55;;;;;;;23.13;3.25;;;7.90;99.90;;;;;;5033366;28;20053;-74
2022/10/06 05:54:28;;;;;;;22.55;3.33;;;8.00;99.90;;;;;;5032847;28;20045;-74
2022/10/06 05:56:55;;;;;;;33.92;3.53;;;7.90;99.90;;;;;;5033676;28;20052;-74
2022/10/06 05:59:23;;;;;;;26.08;3.33;;;7.90;99.90;;;;;;5034189;28;20376;-74
2022/10/06 06:01:53;;;;;;;26.48;3.55;;;7.90;99.90;;;;;;5049426;28;20052;-73
2022/10/06 06:04:34;;;;;;;29.25;3.30;;;7.90;99.90;;;;;;5033658;28;20053;-74
2022/10/06 06:07:04;;;;;;;25.08;3.35;;;8.00;99.90;;;;;;5050208;28;20053;-72
2022/10/06 06:09:33;;;;;;;31.85;3.55;;;7.90;99.90;;;;;;5032518;28;20049;-74
2022/10/06 06:12:03;;;;;;;30.05;3.58;;;7.90;99.90;;;;;;5033557;28;20045;-72
2022/10/06 06:17:36;;;;;;;30.42;3.20;;;7.90;99.90;;;;;;5033275;28;20046;-73
2022/10/06 06:20:05;;;;;;;24.35;3.08;;;8.00;99.90;;;;;;5036034;28;20365;-74
2022/10/06 06:22:34;;;;;;;25.70;3.55;;;8.00;99.90;;;;;;5019381;28;20057;-74
2022/10/06 06:25:03;;;;;;;21.30;2.97;;;8.00;99.90;;;;;;5036762;28;20041;-72
2022/10/06 06:27:31;;;;;;;24.50;3.33;;;8.10;99.90;;;;;;5035402;28;20380;-74
2022/10/06 06:29:58;;;;;;;32.63;3.25;;;9.00;99.90;;;;;;5037801;28;20065;-72
2022/10/06 06:32:27;;;;;;;25.70;3.35;;;8.20;99.90;;;;;;5036540;28;20038;-74
2022/10/06 06:34:56;;;;;;;28.30;3.22;;;8.20;99.90;;;;;;5035714;28;20049;-75
2022/10/06 06:37:25;;;;;;;25.20;3.20;;;8.20;99.90;;;;;;5036494;28;20124;-73
2022/10/06 06:39:54;;;;;;;27.77;3.30;;;8.30;99.90;;;;;;5036303;28;20053;-72
2022/10/06 06:42:21;;;;;;;19.05;2.42;;;8.30;99.90;;;;;;5035712;28;20475;-75
2022/10/06 06:45:15;;;;;;;23.70;3.03;;;9.70;99.90;;;;;;5033446;28;20053;-74
2022/10/06 06:47:55;;;;;;;30.05;3.10;;;8.30;99.90;;;;;;5055741;28;20049;-72
2022/10/06 06:50:23;;;;;;;26.65;2.95;;;8.40;99.90;;;;;;5055977;28;20049;-73
2022/10/06 06:52:52;;;;;;;30.67;3.60;;;8.40;99.90;;;;;;5039423;28;20063;-75
2022/10/06 06:55:21;;;;;;;30.10;3.08;;;9.70;99.90;;;;;;5055335;28;20060;-73
2022/10/06 06:57:49;;;;;;;22.50;3.30;;;9.40;99.90;;;;;;5039213;28;20052;-74
2022/10/06 07:00:17;;;;;;;22.80;2.90;;;8.60;99.90;;;;;;5055665;28;20041;-74
2022/10/06 07:02:46;;;;;;;25.02;3.05;;;6.50;99.90;;;;;;5055313;28;20379;-74
2022/10/06 07:05:14;;;;;;;24.83;3.05;;;10.50;99.90;;;;;;5055517;28;20395;-75
2022/10/06 07:07:41;;;;;;;28.58;2.88;;;8.70;99.90;;;;;;5054450;28;20053;-72
2022/10/06 07:10:10;;;;;;;25.05;3.25;;;8.70;99.90;;;;;;5038698;28;20053;-74
2022/10/06 07:12:38;;;;;;;25.63;3.03;;;8.80;99.90;;;;;;5056358;28;20060;-73
2022/10/06 07:26:17;;;;;;;21.45;2.75;;;9.10;99.90;;;;;;5045147;28;20045;-71
2022/10/06 07:28:47;;;;;;;;;;;9.20;99.90;;;;;;5054728;28;20045;-73
2022/10/06 07:31:17;;;;;;;31.80;3.17;;;9.20;99.90;;;;;;5042659;28;19921;-75
2022/10/06 07:33:46;;;;;;;19.73;2.30;;;9.30;99.90;;;;;;5035226;28;20495;-72
2022/10/06 07:36:15;;;;;;;24.20;2.72;;;9.30;99.90;;;;;;5034217;28;20042;-72
2022/10/06 07:38:43;;;;;;;28.30;2.95;;;9.40;99.90;;;;;;5052001;28;20045;-71
2022/10/06 07:41:11;;;;;;;22.15;2.75;;;9.40;99.90;;;;;;5034117;28;20050;-72
2022/10/06 07:43:58;;;;;;;19.70;3.20;;;9.60;99.90;;;;;;5036024;28;20345;-72
2022/10/06 07:46:32;;;;;;;27.38;2.97;;;9.70;99.90;;;;;;5035807;28;20045;-71
2022/10/06 07:49:04;;;;;;;25.65;3.00;;;9.80;99.90;;;;;;5034625;28;20040;-72
2022/10/06 07:51:32;;;;;;;24.48;3.08;;;9.80;99.90;;;;;;5035486;28;20042;-71
2022/10/06 07:54:02;;;;;;;24.13;3.13;;;11.30;99.90;;;;;;5035267;28;20380;-72
2022/10/06 07:56:51;;;;;;;22.05;3.00;;;10.00;99.90;;;;;;5018596;28;20080;-72
2022/10/06 07:59:20;;;;;;;24.90;3.10;;;10.20;99.90;;;;;;5036553;28;20049;-72
2022/10/06 08:01:49;;;;;;;;;;;10.20;99.90;;;;;;5050667;28;20048;-73
2022/10/06 08:04:17;;;;;;;19.70;3.40;;;10.40;99.90;;;;;;5033599;28;19921;-72
2022/10/06 08:06:46;;;;;;;27.27;3.00;;;10.60;99.90;;;;;;4999212;28;20042;-72
2022/10/06 08:09:13;;;;;;;21.15;3.15;;;11.80;99.90;;;;;;4997511;28;20049;-72
2022/10/06 08:11:43;;;;;;;24.80;3.25;;;10.70;99.90;;;;;;4998493;28;20065;-72
2022/10/06 08:14:13;;;;;;;21.88;3.13;;;10.70;99.90;;;;;;4981303;28;20057;-72
2022/10/06 08:16:41;;;;;;;23.70;3.50;;;10.80;99.90;;;;;;5015604;28;20058;-71
2022/10/06 08:19:10;;;;;;;25.50;3.28;;;11.50;99.90;;;;;;4998758;28;20046;-71
2022/10/06 08:21:38;;;;;;;26.98;3.22;;;11.00;99.90;;;;;;4997170;28;20481;-71
2022/10/06 08:24:06;;;;;;;24.85;3.97;;;11.00;99.90;;;;;;5015398;28;20050;-71
2022/10/06 08:26:33;;;;;;;24.67;3.08;;;11.10;99.90;;;;;;5015413;28;20449;-71
2022/10/06 08:29:06;;;;;;;26.95;3.67;;;11.20;99.90;;;;;;5013909;28;20469;-71
2022/10/06 08:31:34;;;;;;;21.08;3.28;;;11.50;99.90;;;;;;5015474;28;20368;-71
2022/10/06 08:34:02;;;;;;;28.42;3.60;;;11.30;99.90;;;;;;4998359;28;20373;-72
2022/10/06 08:36:32;;;;;;;26.13;3.38;;;11.30;99.90;;;;;;5014049;28;20053;-72
2022/10/06 08:39:00;;;;;;;25.92;3.33;;;11.80;99.90;;;;;;5015418;28;20057;-72
2022/10/06 08:41:47;;;;;;;21.83;2.90;;;11.50;99.90;;;;;;5013508;28;20045;-70
2022/10/06 08:44:21;;;;;;;21.23;3.33;;;11.50;99.90;;;;;;5014632;28;20046;-72
2022/10/06 08:47:06;;;;;;;23.33;2.65;;;11.60;99.90;;;;;;5015150;28;20354;-71
2022/10/06 08:49:38;;;;;;;20.00;3.15;;;11.70;99.90;;;;;;5014479;28;20053;-72
2022/10/06 08:52:20;;;;;;;24.95;2.90;;;11.80;99.90;;;;;;5015096;28;20046;-72
2022/10/06 08:55:06;;;;;;;24.98;3.25;;;11.80;99.90;;;;;;5014442;28;20479;-72
2022/10/06 08:58:07;;;;;;;21.88;3.15;;;11.90;99.90;;;;;;5015593;28;20404;-72
2022/10/06 09:00:36;;;;;;;30.98;3.35;;;12.00;99.90;;;;;;5015294;28;20046;-73
2022/10/06 09:03:06;;;;;;;24.35;3.53;;;12.20;99.90;;;;;;5013494;28;20050;-71
2022/10/06 09:05:34;;;;;;;18.70;2.67;;;12.30;99.90;;;;;;5015029;28;20464;-72
2022/10/06 09:08:18;;;;;;;20.48;3.25;;;12.50;99.90;;;;;;5013953;28;20455;-70
2022/10/06 09:11:12;;;;;;;26.15;3.65;;;12.40;99.90;;;;;;5015352;28;20372;-71
2022/10/06 09:13:52;;;;;;;23.73;3.70;;;12.50;99.90;;;;;;5013060;28;20056;-71
2022/10/06 09:16:28;;;;;;;23.67;3.83;;;12.60;99.90;;;;;;5013742;28;20372;-73
2022/10/06 09:19:18;;;;;;;29.88;3.95;;;12.70;99.90;;;;;;4998008;28;20061;-72
2022/10/06 09:21:51;;;;;;;24.48;3.50;;;12.70;99.90;;;;;;4980447;28;20045;-71
2022/10/06 09:24:31;;;;;;;24.70;3.47;;;12.80;99.90;;;;;;5014498;28;20046;-71
2022/10/06 09:27:10;;;;;;;29.60;3.92;;;12.90;99.90;;;;;;4997921;28;20050;-71
2022/10/06 09:29:37;;;;;;;22.63;3.42;;;12.90;99.90;;;;;;5013702;28;20334;-72
2022/10/06 09:32:05;;;;;;;24.25;3.50;;;12.90;99.90;;;;;;5014716;28;20053;-70
2022/10/06 09:34:51;;;;;;;25.52;4.07;;;13.00;99.90;;;;;;5013105;28;20046;-72
2022/10/06 09:37:18;;;;;;;25.42;3.92;;;13.10;99.90;;;;;;5014115;28;20341;-71
2022/10/06 09:39:49;;;;;;;23.65;3.35;;;13.70;99.90;;;;;;5014225;28;20054;-72
2022/10/06 09:42:18;;;;;;;28.92;3.97;;;13.20;99.90;;;;;;5013124;28;20046;-74
2022/10/06 09:44:49;;;;;;;25.02;4.05;;;13.20;99.90;;;;;;5014389;28;20372;-71
2022/10/06 09:47:22;;;;;;;30.92;4.20;;;13.30;99.90;;;;;;5014125;28;20053;-71
2022/10/06 09:50:11;;;;;;;26.85;3.78;;;13.40;99.90;;;;;;5012812;28;20050;-70
2022/10/06 09:52:59;;;;;;;23.92;3.97;;;13.40;99.90;;;;;;4996857;28;20069;-70
2022/10/06 09:55:35;;;;;;;23.95;3.38;;;14.10;99.90;;;;;;5016841;28;20056;-71
2022/10/06 09:58:21;;;;;;;26.73;3.85;;;13.50;99.90;;;;;;5017977;28;20049;-71
2022/10/06 10:01:13;;;;;;;29.75;4.22;;;13.60;99.90;;;;;;5000743;28;20054;-72
2022/10/06 10:03:50;;;;;;;29.08;3.90;;;13.60;99.90;;;;;;5000573;28;20057;-71
2022/10/06 10:06:40;;;;;;;24.10;4.05;;;13.70;99.90;;;;;;5017782;28;20372;-72
2022/10/06 10:09:18;;;;;;;27.83;4.20;;;13.70;99.90;;;;;;5016799;28;20041;-71
2022/10/06 10:12:23;;;;;;;20.67;3.92;;;13.80;99.90;;;;;;5017757;28;20065;-72
2022/10/06 10:14:52;;;;;;;26.42;3.90;;;13.80;99.90;;;;;;4983428;28;20524;-71
2022/10/06 10:17:31;;;;;;;21.17;3.88;;;13.90;99.90;;;;;;5000370;28;20484;-72
2022/10/06 10:20:01;;;;;;;31.77;4.13;;;14.00;99.90;;;;;;5017346;28;20064;-70
2022/10/06 10:22:32;;;;;;;27.75;4.10;;;14.00;99.90;;;;;;5016390;28;20045;-70
2022/10/06 10:25:21;;;;;;;24.20;3.83;;;14.00;99.90;;;;;;5000460;28;20038;-71
2022/10/06 10:27:53;;;;;;;23.83;3.80;;;14.10;99.90;;;;;;5016662;28;20313;-69
2022/10/06 10:30:22;;;;;;;27.42;3.80;;;14.20;99.90;;;;;;5018000;28;20057;-71
2022/10/06 10:33:01;;;;;;;27.80;4.45;;;14.20;99.90;;;;;;5017598;28;20050;-71
2022/10/06 10:35:33;;;;;;;33.10;4.30;;;14.30;99.90;;;;;;5016827;28;20041;-71
2022/10/06 10:38:17;;;;;;;23.27;3.92;;;14.30;99.90;;;;;;5017733;28;20046;-71
2022/10/06 10:40:50;;;;;;;31.50;4.30;;;14.30;99.90;;;;;;5016831;28;20077;-71
2022/10/06 10:43:46;;;;;;;22.90;3.70;;;14.30;99.90;;;;;;5017409;28;20042;-71
2022/10/06 10:46:27;;;;;;;30.00;3.80;;;14.40;99.90;;;;;;5016656;28;20110;-71
2022/10/06 10:49:11;;;;;;;26.70;3.65;;;14.50;99.90;;;;;;5016426;28;20045;-70
2022/10/06 10:51:52;;;;;;;27.70;4.10;;;14.60;99.90;;;;;;5000065;28;20077;-70
2022/10/06 10:54:29;;;;;;;23.67;3.70;;;14.60;99.90;;;;;;5016216;28;20049;-71
2022/10/06 10:56:57;;;;;;;21.65;3.80;;;14.60;99.90;;;;;;5017433;28;20046;-71
2022/10/06 10:59:38;;;;;;;28.80;3.80;;;14.70;99.90;;;;;;5017197;28;20365;-72
2022/10/06 11:02:15;;;;;;;19.92;3.78;;;14.60;99.80;;;;;;5016393;28;20052;-70
2022/10/06 11:05:09;;;;;;;26.25;4.20;;;14.80;99.80;;;;;;5016783;28;20046;-70
2022/10/06 11:07:49;;;;;;;27.17;3.88;;;14.80;99.50;;;;;;4992805;28;20052;-70
2022/10/06 11:10:25;;;;;;;20.60;3.50;;;14.80;99.00;;;;;;5017255;28;20053;-70
2022/10/06 11:13:19;;;;;;;24.40;3.92;;;14.90;98.60;;;;;;5016895;28;20057;-71
2022/10/06 11:16:32;;;;;;;22.25;3.50;;;15.00;98.40;;;;;;5015938;28;20045;-70
2022/10/06 11:19:15;;;;;;;23.77;3.42;;;15.10;98.40;;;;;;4976286;28;20466;-70
2022/10/06 11:22:05;;;;;;;22.73;3.65;;;15.20;98.40;;;;;;4959325;28;20074;-71
2022/10/06 11:24:52;;;;;;;17.75;3.33;;;15.20;98.30;;;;;;5008382;28;20073;-70
2022/10/06 11:27:33;;;;;;;26.08;3.38;;;15.30;98.00;;;;;;4999352;28;20361;-71
2022/10/06 11:30:18;;;;;;;21.55;3.92;;;15.30;97.90;;;;;;5017025;28;20046;-70
2022/10/06 11:33:10;;;;;;;24.48;3.47;;;15.40;97.80;;;;;;5016820;28;20042;-68
2022/10/06 11:35:40;;;;;;;18.58;3.50;;;15.40;97.50;;;;;;5015163;28;20386;-69
2022/10/06 11:38:35;;;;;;;31.67;4.35;;;15.50;97.30;;;;;;5000041;28;20050;-70
2022/10/06 11:41:12;;;;;;;30.30;4.38;;;15.60;97.40;;;;;;5015105;28;20103;-70
2022/10/06 11:43:49;;;;;;;19.35;3.45;;;15.60;97.20;;;;;;5015829;28;20045;-68
2022/10/06 11:46:36;;;;;;;20.45;3.45;;;15.70;97.10;;;;;;5015871;28;20045;-72
2022/10/06 11:49:30;;;;;;;22.13;3.75;;;15.70;96.90;;;;;;5014891;28;20069;-72
2022/10/06 11:52:07;;;;;;;27.30;3.90;;;15.80;96.80;;;;;;5016018;28;20372;-70
2022/10/06 11:54:38;;;;;;;19.13;3.42;;;15.80;96.90;;;;;;5014506;28;20085;-70
2022/10/06 11:57:21;;;;;;;16.02;3.45;;;15.90;96.80;;;;;;4998839;28;20053;-70
2022/10/06 12:00:03;;;;;;;20.70;3.90;;;16.00;96.70;;;;;;5015847;28;20056;-70
2022/10/06 12:02:33;;;;;;;22.55;4.00;;;16.10;96.40;;;;;;5014494;28;20046;-70
2022/10/06 12:05:31;;;;;;;26.58;3.85;;;16.20;95.80;;;;;;5015675;28;20511;-70
2022/10/06 12:08:37;;;;;;;16.05;3.25;;;16.30;95.80;;;;;;5014537;28;20042;-70
2022/10/06 12:11:41;;;;;;;24.15;4.18;;;16.40;95.60;;;;;;4998433;28;20049;-70
2022/10/06 12:14:29;;;;;;;29.30;4.10;;;16.50;95.50;;;;;;5014784;28;20098;-69
2022/10/06 12:17:39;;;;;;;19.80;3.83;;;16.60;95.40;;;;;;5014460;28;20034;-69
2022/10/06 12:20:20;;;;;;;19.13;3.30;;;16.60;95.00;;;;;;5014899;28;20053;-70
2022/10/06 12:22:47;;;;;;;20.15;4.13;;;16.70;95.30;;;;;;5014228;28;20045;-70
2022/10/06 12:25:26;;;;;;;20.23;3.17;;;16.80;95.30;;;;;;5015495;28;20046;-70
2022/10/06 12:28:19;;;;;;;25.95;3.63;;;17.00;95.10;;;;;;5014091;28;20045;-70
2022/10/06 12:31:11;;;;;;;19.75;3.15;;;17.20;95.10;;;;;;5014884;28;20065;-70
2022/10/06 12:33:45;;;;;;;20.20;3.80;;;17.30;94.70;;;;;;4999056;28;20050;-70
2022/10/06 12:36:31;;;;;;;26.63;4.28;;;17.50;93.90;;;;;;4997041;28;20054;-70
2022/10/06 12:39:21;;;;;;;20.83;3.85;;;17.50;93.90;;;;;;5015189;28;20046;-70
2022/10/06 12:42:23;;;;;;;23.15;3.97;;;17.60;94.00;;;;;;5013884;28;20050;-69
2022/10/06 12:44:52;;;;;;;17.88;3.50;;;17.70;94.20;;;;;;4977556;28;20050;-70
2022/10/06 12:47:26;;;;;;;22.77;3.55;;;17.80;94.30;;;;;;4997782;28;20049;-70
2022/10/06 12:50:04;;;;;;;27.83;4.07;;;18.00;94.10;;;;;;4996988;28;20052;-71
2022/10/06 12:52:57;;;;;;;17.98;3.42;;;18.10;93.90;;;;;;5015033;28;20056;-69
2022/10/06 12:55:40;;;;;;;19.02;3.80;;;18.20;93.40;;;;;;5014021;28;20070;-70
2022/10/06 12:58:38;;;;;;;20.60;3.42;;;18.30;93.40;;;;;;4997657;28;20350;-70
2022/10/06 13:01:11;;;;;;;20.38;3.90;;;18.30;92.90;;;;;;5005721;28;20054;-69
2022/10/06 13:03:39;;;;;;;24.48;4.55;;;18.30;93.20;;;;;;4981392;28;20053;-70
2022/10/06 13:06:08;;;;;;;22.90;4.82;;;18.20;92.90;;;;;;5027514;28;20041;-72
2022/10/06 13:08:37;;;;;;;18.65;4.03;;;18.10;92.70;;;;;;5032659;28;20460;-72
2022/10/06 13:11:25;;;;;;;23.35;4.28;;;18.10;92.80;;;;;;5034376;28;20041;-70
2022/10/06 13:13:55;;;;;;;23.85;3.90;;;18.10;92.90;;;;;;5050496;28;20368;-69
2022/10/06 13:16:25;;;;;;;21.23;3.85;;;18.10;92.80;;;;;;5033471;28;20499;-68
2022/10/06 13:18:55;;;;;;;20.25;3.78;;;18.10;92.50;;;;;;5033471;28;20365;-68
2022/10/06 13:21:23;;;;;;;25.10;3.72;;;18.10;92.50;;;;;;5033317;28;20056;-68
2022/10/06 13:23:51;;;;;;;31.50;5.05;;;18.00;92.70;;;;;;5049793;28;20053;-68
2022/10/06 13:26:23;;;;;;;21.38;3.83;;;18.00;92.70;;;;;;5034173;28;20037;-68
2022/10/06 13:28:58;;;;;;;20.17;4.20;;;18.00;92.70;;;;;;5036410;28;20048;-68
2022/10/06 13:31:27;;;;;;;15.57;3.70;;;17.90;92.70;;;;;;5037543;28;20049;-68